Austinville, Iowa
Current Conditions -  °F | °C
As of 12:15 PM on Thursday 29 Jan 2015 (Local Time) from KIFA Reporting Station
Overcast Overcast  
Wind Chill: 17°   Ceiling: 1600
Heat Index: 32°   Visibility: 10mi
Dew Point: 26°   Wind: 31mph
Humidity: 80%   Direction: 330°NNW
Pressure: 30.24"   Gusts: 39mph
Location:  42.59°N, 92.96°W
Report Text: KIFA 291815Z AUTO 33027G34KT 10SM OVC016 00/M03 A3024 RMK AO2 T00001031
Loading
Personal Weather Stations






























Interactive Weather Map New forecast layout! Learn more

10-Day Weather Forecast

Advertisements
Track Severe Weather on mobile